createdAt,value
2023-01-25T00:02:27.599Z,1.10
2023-01-25T00:04:54.542Z,0.90
2023-01-25T00:07:21.532Z,1.00
2023-01-25T00:09:48.357Z,1.80
2023-01-25T00:12:15.213Z,1.20
2023-01-25T00:14:44.859Z,1.00
2023-01-25T00:17:11.770Z,1.60
2023-01-25T00:19:38.583Z,1.00
2023-01-25T00:22:05.438Z,0.90
2023-01-25T00:24:32.201Z,1.30
2023-01-25T00:26:59.040Z,1.20
2023-01-25T00:29:25.886Z,1.10
2023-01-25T00:32:21.991Z,1.00
2023-01-25T00:34:50.987Z,1.20
2023-01-25T00:37:28.580Z,1.30
2023-01-25T00:39:55.429Z,1.50
2023-01-25T00:42:22.560Z,1.30
2023-01-25T00:44:49.865Z,1.20
2023-01-25T00:47:17.446Z,1.10
2023-01-25T00:49:45.878Z,1.10
2023-01-25T00:52:13.200Z,2.10
2023-01-25T00:54:40.159Z,0.90
2023-01-25T00:57:07.341Z,3.50
2023-01-25T00:59:34.758Z,1.20
2023-01-25T01:02:02.999Z,2.10
2023-01-25T01:04:30.564Z,0.90
2023-01-25T01:06:57.495Z,0.90
2023-01-25T01:09:24.606Z,0.90
2023-01-25T01:11:51.752Z,2.10
2023-01-25T01:14:19.697Z,0.90
2023-01-25T01:16:47.005Z,1.00
2023-01-25T01:19:16.126Z,1.10
2023-01-25T01:21:43.299Z,1.10
2023-01-25T01:24:11.307Z,0.90
2023-01-25T01:26:38.309Z,0.90
2023-01-25T01:29:05.961Z,1.10
2023-01-25T01:31:32.926Z,0.90
2023-01-25T01:34:01.232Z,0.90
2023-01-25T01:36:30.509Z,0.70
2023-01-25T01:38:58.821Z,1.10
2023-01-25T01:41:26.316Z,1.90
2023-01-25T01:43:53.294Z,1.10
2023-01-25T01:46:35.958Z,0.70
2023-01-25T01:49:11.874Z,2.00
2023-01-25T01:51:41.592Z,2.60
2023-01-25T01:54:33.646Z,1.30
2023-01-25T01:57:16.360Z,-0.20
2023-01-25T01:59:57.887Z,1.20
2023-01-25T02:02:26.382Z,1.20
2023-01-25T02:04:57.237Z,1.30
2023-01-25T02:07:37.107Z,1.00
2023-01-25T02:10:06.766Z,1.10
2023-01-25T02:12:34.801Z,0.60
2023-01-25T02:15:01.752Z,2.00
2023-01-25T02:17:34.853Z,1.90
2023-01-25T02:20:16.818Z,0.80
2023-01-25T02:23:14.690Z,1.10
2023-01-25T02:25:41.834Z,1.10
2023-01-25T02:28:15.546Z,1.50
2023-01-25T02:30:46.017Z,0.90
2023-01-25T02:33:13.220Z,1.10
2023-01-25T02:35:51.461Z,0.70
2023-01-25T02:38:21.222Z,1.10
2023-01-25T02:40:59.424Z,2.40
2023-01-25T02:43:31.337Z,1.20
2023-01-25T02:46:10.914Z,1.90
2023-01-25T02:48:37.745Z,0.50
2023-01-25T02:51:07.681Z,0.80
2023-01-25T02:53:34.885Z,1.10
2023-01-25T02:56:01.869Z,0.90
2023-01-25T02:58:28.698Z,1.00
2023-01-25T03:00:57.451Z,0.40
2023-01-25T03:03:24.373Z,0.80
2023-01-25T03:05:51.232Z,0.60
2023-01-25T03:08:18.122Z,1.90
2023-01-25T03:10:45.003Z,0.60
2023-01-25T03:13:11.815Z,0.60
2023-01-25T03:15:38.604Z,2.20
2023-01-25T03:18:05.384Z,0.80
2023-01-25T03:20:32.319Z,2.40
2023-01-25T03:22:59.135Z,0.60
2023-01-25T03:25:26.859Z,0.90
2023-01-25T03:27:54.302Z,2.30
2023-01-25T03:30:21.111Z,1.50
2023-01-25T03:32:47.892Z,0.70
2023-01-25T03:35:14.811Z,0.60
2023-01-25T03:37:41.591Z,2.40
2023-01-25T03:40:09.359Z,1.80
2023-01-25T03:42:36.150Z,1.00
2023-01-25T03:45:03.281Z,0.80
2023-01-25T03:47:30.063Z,1.00
2023-01-25T03:49:56.844Z,0.70
2023-01-25T03:52:24.691Z,0.50
2023-01-25T03:54:51.533Z,0.60
2023-01-25T03:57:18.437Z,0.10
2023-01-25T03:59:45.182Z,3.30
2023-01-25T04:02:12.936Z,0.10
2023-01-25T04:04:39.745Z,0.50
2023-01-25T04:07:06.600Z,0.30
2023-01-25T04:09:33.359Z,0.60
2023-01-25T04:12:00.121Z,0.60
2023-01-25T04:14:43.270Z,0.30
2023-01-25T04:17:11.184Z,0.70
2023-01-25T04:19:37.993Z,2.00
2023-01-25T04:22:04.818Z,0.60
2023-01-25T04:24:31.728Z,0.70
2023-01-25T04:26:58.546Z,0.60
2023-01-25T04:29:35.522Z,0.30
2023-01-25T04:32:07.342Z,0.30
2023-01-25T04:34:34.184Z,1.50
2023-01-25T04:37:01.061Z,0.20
2023-01-25T04:39:27.914Z,0.80
2023-01-25T04:41:54.682Z,2.60
2023-01-25T04:44:21.446Z,0.80
2023-01-25T04:46:48.852Z,0.60
2023-01-25T04:49:15.644Z,0.50
2023-01-25T04:51:42.502Z,0.90
2023-01-25T04:54:09.335Z,1.60
2023-01-25T04:59:03.396Z,0.90
2023-01-25T05:01:30.401Z,0.30
2023-01-25T05:03:57.261Z,0.50
2023-01-25T05:06:24.147Z,0.50
2023-01-25T05:08:51.044Z,1.00
2023-01-25T05:11:17.934Z,-0.30
2023-01-25T05:13:44.790Z,0.40
2023-01-25T05:16:11.705Z,0.30
2023-01-25T05:18:48.001Z,0.30
2023-01-25T05:21:34.506Z,0.60
2023-01-25T05:24:01.729Z,0.40
2023-01-25T05:26:47.350Z,0.60
2023-01-25T05:29:14.203Z,0.20
2023-01-25T05:31:41.101Z,0.60
2023-01-25T05:34:09.037Z,0.20
2023-01-25T05:36:37.964Z,1.60
2023-01-25T05:39:06.737Z,0.50
2023-01-25T05:41:33.572Z,0.10
2023-01-25T05:44:00.793Z,0.30
2023-01-25T05:46:28.370Z,0.20
2023-01-25T05:48:55.210Z,0.50
2023-01-25T05:51:22.255Z,0.80
2023-01-25T05:53:49.241Z,0.80
2023-01-25T05:56:16.553Z,0.70
2023-01-25T05:58:43.591Z,0.70
2023-01-25T06:01:10.625Z,0.70
2023-01-25T06:03:37.533Z,1.80
2023-01-25T06:06:07.727Z,0.80
2023-01-25T06:08:35.521Z,0.90
2023-01-25T06:11:11.563Z,0.80
2023-01-25T06:13:38.390Z,0.70
2023-01-25T06:16:05.694Z,0.70
2023-01-25T06:18:34.616Z,0.80
2023-01-25T06:21:02.148Z,0.80
2023-01-25T06:26:07.309Z,0.80
2023-01-25T06:28:35.960Z,0.80
2023-01-25T06:31:10.927Z,0.90
2023-01-25T06:33:38.084Z,0.80
2023-01-25T06:36:13.846Z,0.80
2023-01-25T06:38:41.672Z,0.80
2023-01-25T06:41:12.109Z,0.70
2023-01-25T06:43:39.520Z,0.80
2023-01-25T06:46:09.540Z,0.80
2023-01-25T06:48:36.519Z,0.80
2023-01-25T06:51:09.826Z,1.90
2023-01-25T06:53:39.667Z,1.00
2023-01-25T06:56:28.173Z,0.40
2023-01-25T06:58:55.016Z,2.00
2023-01-25T07:01:30.423Z,0.60
2023-01-25T07:03:59.518Z,1.80
2023-01-25T07:06:31.322Z,1.60
2023-01-25T07:09:11.678Z,0.50
2023-01-25T07:11:39.124Z,0.50
2023-01-25T07:14:06.433Z,0.70
2023-01-25T07:16:37.110Z,0.70
2023-01-25T07:19:05.797Z,0.70
2023-01-25T07:21:33.256Z,0.10
2023-01-25T07:24:03.941Z,0.40
2023-01-25T07:26:32.186Z,0.20
2023-01-25T07:28:59.413Z,0.70
2023-01-25T07:31:26.340Z,0.60
2023-01-25T07:33:57.919Z,0.60
2023-01-25T07:36:25.537Z,0.80
2023-01-25T07:38:57.548Z,0.40
2023-01-25T07:41:27.644Z,0.90
2023-01-25T07:43:55.344Z,0.80
2023-01-25T07:46:23.698Z,1.40
2023-01-25T07:48:52.426Z,0.10
2023-01-25T07:51:25.135Z,1.60
2023-01-25T07:54:03.797Z,0.50
2023-01-25T07:56:37.773Z,0.70
2023-01-25T07:59:05.415Z,0.70
2023-01-25T08:01:34.543Z,0.40
2023-01-25T08:04:02.183Z,0.60
2023-01-25T08:06:39.316Z,0.60
2023-01-25T08:09:19.899Z,0.90
2023-01-25T08:11:47.373Z,0.90
2023-01-25T08:14:14.130Z,0.80
2023-01-25T08:16:40.956Z,0.80
2023-01-25T08:19:10.224Z,0.90
2023-01-25T08:21:37.837Z,0.70
2023-01-25T08:24:06.817Z,0.80
2023-01-25T08:26:35.047Z,0.90
2023-01-25T08:29:01.963Z,0.90
2023-01-25T08:31:31.379Z,0.80
2023-01-25T08:33:58.616Z,0.80
2023-01-25T08:36:28.094Z,0.70
2023-01-25T08:39:00.138Z,0.70
2023-01-25T08:41:28.715Z,0.90
2023-01-25T08:43:56.130Z,2.10
2023-01-25T08:46:25.389Z,2.10
2023-01-25T08:51:39.143Z,1.00
2023-01-25T08:54:08.171Z,0.70
2023-01-25T08:56:37.600Z,0.10
2023-01-25T08:59:04.371Z,0.70
2023-01-25T09:01:34.009Z,0.80
2023-01-25T09:04:01.446Z,0.80
2023-01-25T09:06:28.385Z,0.80
2023-01-25T09:08:55.400Z,0.20
2023-01-25T09:11:23.213Z,0.40
2023-01-25T09:13:50.113Z,0.40
2023-01-25T09:16:28.468Z,0.30
2023-01-25T09:19:01.039Z,0.80
2023-01-25T09:21:28.615Z,0.70
2023-01-25T09:24:11.267Z,0.70
2023-01-25T09:26:42.801Z,0.70
2023-01-25T09:29:11.554Z,0.70
2023-01-25T09:31:40.664Z,0.50
2023-01-25T09:34:08.693Z,1.80
2023-01-25T09:36:36.650Z,0.50
2023-01-25T09:39:04.024Z,1.60
2023-01-25T09:42:22.580Z,1.10
2023-01-25T09:45:04.588Z,0.90
2023-01-25T09:47:43.741Z,0.90
2023-01-25T09:50:45.887Z,1.20
2023-01-25T09:53:53.257Z,1.00
2023-01-25T09:56:22.926Z,1.10
2023-01-25T09:58:57.346Z,0.80
2023-01-25T10:01:38.631Z,0.80
2023-01-25T10:04:16.752Z,0.90
2023-01-25T10:07:02.715Z,1.10
2023-01-25T10:09:49.722Z,1.30
2023-01-25T10:12:25.008Z,1.10
2023-01-25T10:14:52.759Z,1.10
2023-01-25T10:17:34.883Z,0.80
2023-01-25T10:20:33.820Z,1.10
2023-01-25T10:23:31.928Z,1.10
2023-01-25T10:25:59.780Z,1.00
2023-01-25T10:28:39.253Z,2.40
2023-01-25T10:31:09.021Z,0.80
2023-01-25T10:33:40.930Z,1.10
2023-01-25T10:36:14.566Z,0.60
2023-01-25T10:38:45.525Z,0.80
2023-01-25T10:41:15.605Z,1.10
2023-01-25T10:43:42.450Z,0.30
2023-01-25T10:46:19.310Z,0.20
2023-01-25T10:48:46.192Z,0.80
2023-01-25T10:51:29.947Z,0.50
2023-01-25T10:54:03.119Z,0.80
2023-01-25T10:56:32.191Z,0.90
2023-01-25T10:59:17.629Z,0.50
2023-01-25T11:01:44.580Z,1.30
2023-01-25T11:04:25.362Z,-0.50
2023-01-25T11:06:52.790Z,0.90
2023-01-25T11:09:22.641Z,1.10
2023-01-25T11:12:03.236Z,1.00
2023-01-25T11:14:32.154Z,0.90
2023-01-25T11:17:01.463Z,0.80
2023-01-25T11:19:39.663Z,0.90
2023-01-25T11:22:24.038Z,1.10
2023-01-25T11:24:50.871Z,0.80
2023-01-25T11:27:21.308Z,0.90
2023-01-25T11:30:15.959Z,0.80
2023-01-25T11:32:42.884Z,0.30
2023-01-25T11:35:21.471Z,1.10
2023-01-25T11:38:14.289Z,1.20
2023-01-25T11:41:36.662Z,1.20
2023-01-25T11:44:12.971Z,1.20
2023-01-25T11:46:53.352Z,1.10
2023-01-25T11:49:32.603Z,1.20
2023-01-25T11:52:18.416Z,1.20
2023-01-25T11:54:45.122Z,1.20
2023-01-25T11:57:34.969Z,0.80
2023-01-25T12:00:23.083Z,1.10
2023-01-25T12:03:22.667Z,1.10
2023-01-25T12:06:06.404Z,1.10
2023-01-25T12:08:42.293Z,0.90
2023-01-25T12:11:47.167Z,1.00
2023-01-25T12:14:32.552Z,1.00
2023-01-25T12:17:02.901Z,1.00
2023-01-25T12:19:38.810Z,1.10
2023-01-25T12:22:26.860Z,1.00
2023-01-25T12:25:07.697Z,1.00
2023-01-25T12:27:58.921Z,1.10
2023-01-25T12:30:48.970Z,1.00
2023-01-25T12:33:41.960Z,0.90
2023-01-25T12:36:17.465Z,0.90
2023-01-25T12:38:52.610Z,0.90
2023-01-25T12:41:32.311Z,0.90
2023-01-25T12:44:29.467Z,1.00
2023-01-25T12:47:22.250Z,1.10
2023-01-25T12:50:17.091Z,1.20
2023-01-25T12:53:06.563Z,1.10
2023-01-25T12:55:33.537Z,1.10
2023-01-25T12:58:03.874Z,1.10
2023-01-25T13:01:17.594Z,1.00
2023-01-25T13:04:24.412Z,1.10
2023-01-25T13:07:18.452Z,1.30
2023-01-25T13:10:21.164Z,1.10
2023-01-25T13:13:06.502Z,1.10
2023-01-25T13:15:39.923Z,1.10
2023-01-25T13:18:31.021Z,1.20
2023-01-25T13:21:06.581Z,1.00
2023-01-25T13:23:49.516Z,0.90
2023-01-25T13:26:23.820Z,1.10
2023-01-25T13:28:51.603Z,1.00
2023-01-25T13:31:53.512Z,0.80
2023-01-25T13:34:35.715Z,1.00
2023-01-25T13:37:16.196Z,1.00
2023-01-25T13:39:45.655Z,1.00
2023-01-25T13:42:12.399Z,0.90
2023-01-25T13:44:44.411Z,0.90
2023-01-25T13:47:13.577Z,0.90
2023-01-25T13:49:44.849Z,0.80
2023-01-25T13:52:17.159Z,0.80
2023-01-25T13:54:48.500Z,0.70
2023-01-25T13:57:20.536Z,0.70
2023-01-25T13:59:49.625Z,0.90
2023-01-25T14:02:21.819Z,0.90
2023-01-25T14:04:50.400Z,0.90
2023-01-25T14:07:21.137Z,0.90
2023-01-25T14:09:51.242Z,0.70
2023-01-25T14:12:38.040Z,0.70
2023-01-25T14:15:32.534Z,0.70
2023-01-25T14:18:14.757Z,0.80
2023-01-25T14:20:42.607Z,0.90
2023-01-25T14:23:23.881Z,0.90
2023-01-25T14:25:51.940Z,0.90
2023-01-25T14:28:18.935Z,1.00
2023-01-25T14:30:51.549Z,1.00
2023-01-25T14:33:26.258Z,0.80
2023-01-25T14:35:59.853Z,0.90
2023-01-25T14:38:31.429Z,0.80
2023-01-25T14:41:03.237Z,0.80
2023-01-25T14:43:31.189Z,0.70
2023-01-25T14:45:58.030Z,0.70
2023-01-25T14:48:40.464Z,0.70
2023-01-25T14:51:11.133Z,0.80
2023-01-25T14:53:41.099Z,0.70
2023-01-25T14:56:24.627Z,0.70
2023-01-25T14:58:59.464Z,0.70
2023-01-25T15:01:32.888Z,0.50
2023-01-25T15:03:59.659Z,0.60
2023-01-25T15:06:26.456Z,0.30
2023-01-25T15:08:53.416Z,0.00
2023-01-25T15:12:00.478Z,0.20
2023-01-25T15:14:27.633Z,0.70
2023-01-25T15:16:56.164Z,0.60
2023-01-25T15:19:30.302Z,0.70
2023-01-25T15:21:59.334Z,0.60
2023-01-25T15:24:27.054Z,0.60
2023-01-25T15:26:55.335Z,0.60
2023-01-25T15:29:26.894Z,0.60
2023-01-25T15:31:55.589Z,0.60
2023-01-25T15:34:26.223Z,0.50
2023-01-25T15:36:52.941Z,0.60
2023-01-25T15:39:20.226Z,0.50
2023-01-25T15:41:48.112Z,0.50
2023-01-25T15:44:15.032Z,0.50
2023-01-25T15:46:44.951Z,2.00
2023-01-25T15:49:18.769Z,0.60
2023-01-25T15:51:45.856Z,0.50
2023-01-25T15:54:14.578Z,0.40
2023-01-25T15:56:44.673Z,0.40
2023-01-25T15:59:24.966Z,0.70
2023-01-25T16:01:52.930Z,0.50
2023-01-25T16:04:19.693Z,0.10
2023-01-25T16:09:24.316Z,0.30
2023-01-25T16:11:56.820Z,0.30
2023-01-25T16:14:28.977Z,0.40
2023-01-25T16:19:29.802Z,0.10
2023-01-25T16:21:56.732Z,-0.10
2023-01-25T16:24:23.953Z,0.10
2023-01-25T16:26:53.359Z,0.90
2023-01-25T16:29:21.601Z,-0.10
2023-01-25T16:31:49.011Z,0.10
2023-01-25T16:34:15.830Z,0.00
2023-01-25T16:36:47.784Z,0.10
2023-01-25T16:39:22.184Z,0.10
2023-01-25T16:41:49.798Z,0.20
2023-01-25T16:44:17.304Z,0.20
2023-01-25T16:46:44.297Z,-0.10
2023-01-25T16:49:16.420Z,0.10
2023-01-25T16:51:45.288Z,0.00
2023-01-25T16:54:31.229Z,-0.20
2023-01-25T16:57:05.822Z,0.60
2023-01-25T16:59:37.934Z,0.50
2023-01-25T17:02:04.667Z,0.10
2023-01-25T17:04:31.411Z,0.10
2023-01-25T17:06:58.891Z,0.10
2023-01-25T17:09:25.842Z,-0.10
2023-01-25T17:11:55.853Z,0.50
2023-01-25T17:14:23.150Z,0.20
2023-01-25T17:16:51.924Z,0.10
2023-01-25T17:19:19.975Z,0.10
2023-01-25T17:21:47.173Z,1.20
2023-01-25T17:24:17.095Z,-0.10
2023-01-25T17:26:44.281Z,0.00
2023-01-25T17:29:11.273Z,0.10
2023-01-25T17:31:39.649Z,0.20
2023-01-25T17:34:08.058Z,0.00
2023-01-25T17:36:34.834Z,-0.10
2023-01-25T17:39:06.155Z,0.10
2023-01-25T17:41:32.962Z,0.20
2023-01-25T17:43:59.777Z,-0.10
2023-01-25T17:46:33.069Z,-0.20
2023-01-25T17:49:02.145Z,0.00
2023-01-25T17:51:29.334Z,0.00
2023-01-25T17:53:57.255Z,0.00
2023-01-25T17:56:24.849Z,0.00
2023-01-25T17:58:52.088Z,0.60
2023-01-25T18:01:27.094Z,-0.10
2023-01-25T18:03:54.892Z,0.00
2023-01-25T18:06:25.125Z,-0.10
2023-01-25T18:08:54.613Z,-0.10
2023-01-25T18:11:26.690Z,-0.10
2023-01-25T18:13:56.992Z,0.40
2023-01-25T18:16:25.612Z,-0.50
2023-01-25T18:18:54.274Z,0.00
2023-01-25T18:21:25.925Z,-0.10
2023-01-25T18:23:55.233Z,0.70
2023-01-25T18:26:27.064Z,-0.10
2023-01-25T18:29:03.670Z,-0.10
2023-01-25T18:31:30.631Z,0.50
2023-01-25T18:33:58.260Z,-0.30
2023-01-25T18:36:25.509Z,-0.30
2023-01-25T18:38:52.655Z,-0.40
2023-01-25T18:41:19.454Z,-0.20
2023-01-25T18:43:49.394Z,0.00
2023-01-25T18:46:16.230Z,-0.20
2023-01-25T18:48:45.474Z,-0.40
2023-01-25T18:51:15.571Z,0.90
2023-01-25T18:53:43.459Z,-0.50
2023-01-25T18:56:15.990Z,-0.30
2023-01-25T18:58:43.053Z,-0.10
2023-01-25T19:01:16.315Z,-0.50
2023-01-25T19:03:43.996Z,-0.20
2023-01-25T19:06:11.715Z,-0.40
2023-01-25T19:08:44.233Z,0.50
2023-01-25T19:11:17.246Z,-0.30
2023-01-25T19:13:44.651Z,-0.10
2023-01-25T19:16:17.164Z,0.50
2023-01-25T19:18:47.948Z,-0.30
2023-01-25T19:21:23.946Z,-0.30
2023-01-25T19:23:51.516Z,-0.40
2023-01-25T19:26:20.488Z,-0.60
2023-01-25T19:28:47.926Z,-0.60
2023-01-25T19:31:20.636Z,-0.40
2023-01-25T19:33:48.105Z,-0.30
2023-01-25T19:36:19.260Z,-0.40
2023-01-25T19:38:47.507Z,-0.70
2023-01-25T19:41:17.070Z,-0.50
2023-01-25T19:43:53.192Z,-0.50
2023-01-25T19:46:22.261Z,0.00
2023-01-25T19:48:51.118Z,-0.90
2023-01-25T19:51:22.773Z,-0.40
2023-01-25T19:54:00.753Z,-0.30
2023-01-25T19:56:39.408Z,-0.30
2023-01-25T19:59:08.861Z,-0.40
2023-01-25T20:01:36.628Z,-0.40
2023-01-25T20:04:06.024Z,-0.40
2023-01-25T20:06:33.205Z,-0.50
2023-01-25T20:08:59.998Z,-0.60
2023-01-25T20:11:29.348Z,-0.60
2023-01-25T20:13:59.204Z,1.00
2023-01-25T20:16:27.413Z,-0.60
2023-01-25T20:18:56.013Z,-0.80
2023-01-25T20:21:24.975Z,-0.70
2023-01-25T20:23:58.079Z,-0.70
2023-01-25T20:26:28.119Z,-0.70
2023-01-25T20:28:56.813Z,-0.70
2023-01-25T20:31:30.551Z,-0.70
2023-01-25T20:33:59.442Z,-0.40
2023-01-25T20:36:30.063Z,0.80
2023-01-25T20:38:57.214Z,-0.80
2023-01-25T20:41:24.657Z,-0.60
2023-01-25T20:44:10.008Z,-0.40
2023-01-25T20:46:39.278Z,0.20
2023-01-25T20:49:20.456Z,-1.30
2023-01-25T20:51:47.611Z,-0.30
2023-01-25T20:54:15.637Z,-0.90
2023-01-25T20:56:43.082Z,-1.10
2023-01-25T20:59:10.029Z,-0.70
2023-01-25T21:01:37.447Z,-0.50
2023-01-25T21:04:06.706Z,-0.60
2023-01-25T21:06:35.477Z,0.60
2023-01-25T21:09:03.983Z,-1.00
2023-01-25T21:11:31.120Z,-0.90
2023-01-25T21:13:59.555Z,-0.70
2023-01-25T21:16:26.594Z,0.80
2023-01-25T21:18:58.546Z,-0.50
2023-01-25T21:21:30.190Z,1.20
2023-01-25T21:24:00.431Z,1.10
2023-01-25T21:26:34.242Z,-0.40
2023-01-25T21:29:03.625Z,-0.30
2023-01-25T21:31:34.083Z,0.60
2023-01-25T21:34:01.677Z,-0.50
2023-01-25T21:36:28.893Z,-0.50
2023-01-25T21:38:56.145Z,-1.20
2023-01-25T21:41:29.491Z,-0.80
2023-01-25T21:44:17.183Z,-0.80
2023-01-25T21:46:49.253Z,-0.90
2023-01-25T21:49:37.884Z,-0.60
2023-01-25T21:52:04.851Z,-0.60
2023-01-25T21:54:37.088Z,-0.50
2023-01-25T21:57:08.968Z,-0.60
2023-01-25T21:59:36.924Z,-0.30
2023-01-25T22:02:05.275Z,-0.90
2023-01-25T22:04:36.184Z,-1.40
2023-01-25T22:07:03.932Z,-1.00
2023-01-25T22:09:30.726Z,-0.60
2023-01-25T22:11:57.559Z,-0.80
2023-01-25T22:14:24.439Z,-0.80
2023-01-25T22:16:52.098Z,-0.70
2023-01-25T22:19:19.362Z,-0.60
2023-01-25T22:21:46.299Z,-0.60
2023-01-25T22:24:13.310Z,-0.90
2023-01-25T22:26:57.509Z,-1.10
2023-01-25T22:29:25.393Z,-0.50
2023-01-25T22:31:52.250Z,-0.90
2023-01-25T22:34:19.160Z,-0.50
2023-01-25T22:36:46.061Z,-0.70
2023-01-25T22:39:13.933Z,0.40
2023-01-25T22:41:41.641Z,-0.20
2023-01-25T22:44:09.913Z,-0.90
2023-01-25T22:51:31.985Z,-0.60
2023-01-25T22:53:59.842Z,-0.60
2023-01-25T22:56:32.397Z,-0.60
2023-01-25T22:59:00.353Z,-0.60
2023-01-25T23:01:33.090Z,-0.70
2023-01-25T23:04:01.322Z,-0.60
2023-01-25T23:06:31.384Z,-0.70
2023-01-25T23:09:03.417Z,-0.60
2023-01-25T23:11:35.823Z,-0.50
2023-01-25T23:14:24.768Z,-0.50
2023-01-25T23:16:51.899Z,0.00
2023-01-25T23:19:18.894Z,-0.50
2023-01-25T23:21:46.145Z,-0.50
2023-01-25T23:24:13.792Z,-0.50
2023-01-25T23:26:46.512Z,-0.50
2023-01-25T23:29:14.490Z,-0.40
2023-01-25T23:31:41.688Z,-0.70
2023-01-25T23:34:08.766Z,-0.70
2023-01-25T23:36:42.390Z,-0.60
2023-01-25T23:39:13.376Z,0.10
2023-01-25T23:41:40.497Z,-0.40
2023-01-25T23:44:09.745Z,-0.40
2023-01-25T23:46:36.923Z,-0.40
2023-01-25T23:49:03.760Z,-0.40
2023-01-25T23:51:30.608Z,-0.50
2023-01-25T23:53:58.406Z,-0.50
2023-01-25T23:56:25.638Z,-0.50
2023-01-25T23:58:52.512Z,-0.60
